createdAt,value
2022-12-11T00:00:47.230Z,16.75
2022-12-11T00:03:16.128Z,16.13
2022-12-11T00:05:43.683Z,18.33
2022-12-11T00:08:10.793Z,19.55
2022-12-11T00:10:38.201Z,14.05
2022-12-11T00:13:05.433Z,14.65
2022-12-11T00:15:32.354Z,17.02
2022-12-11T00:17:59.335Z,13.30
2022-12-11T00:20:26.211Z,15.52
2022-12-11T00:22:53.152Z,14.27
2022-12-11T00:25:20.068Z,11.40
2022-12-11T00:27:47.536Z,14.20
2022-12-11T00:30:14.839Z,12.35
2022-12-11T00:32:42.346Z,13.00
2022-12-11T00:35:10.342Z,13.65
2022-12-11T00:37:37.486Z,14.65
2022-12-11T00:40:04.897Z,11.20
2022-12-11T00:42:31.982Z,15.45
2022-12-11T00:44:58.921Z,14.15
2022-12-11T00:47:25.800Z,14.10
2022-12-11T00:49:52.867Z,16.10
2022-12-11T00:52:19.730Z,13.90
2022-12-11T00:54:46.653Z,13.73
2022-12-11T00:57:13.664Z,14.82
2022-12-11T00:59:40.821Z,14.18
2022-12-11T01:02:07.710Z,13.35
2022-12-11T01:04:36.340Z,16.00
2022-12-11T01:07:03.310Z,13.48
2022-12-11T01:09:48.678Z,17.52
2022-12-11T01:12:15.624Z,16.85
2022-12-11T01:14:42.498Z,13.20
2022-12-11T01:17:09.467Z,13.73
2022-12-11T01:19:37.412Z,15.93
2022-12-11T01:22:04.428Z,12.50
2022-12-11T01:24:31.341Z,14.98
2022-12-11T01:26:58.347Z,15.05
2022-12-11T01:29:25.269Z,12.05
2022-12-11T01:31:52.250Z,14.73
2022-12-11T01:34:19.204Z,12.50
2022-12-11T01:36:46.143Z,13.93
2022-12-11T01:39:13.087Z,15.90
2022-12-11T01:41:40.125Z,14.88
2022-12-11T01:44:07.956Z,12.75
2022-12-11T01:46:36.001Z,15.80
2022-12-11T01:49:04.842Z,13.30
2022-12-11T01:51:32.334Z,15.40
2022-12-11T01:54:04.820Z,15.88
2022-12-11T01:56:31.901Z,14.95
2022-12-11T01:59:00.479Z,15.60
2022-12-11T02:01:37.571Z,14.15
2022-12-11T02:04:04.694Z,16.17
2022-12-11T02:06:39.276Z,14.48
2022-12-11T02:09:08.085Z,13.65
2022-12-11T02:11:56.266Z,16.58
2022-12-11T02:14:37.719Z,14.30
2022-12-11T02:17:13.960Z,14.13
2022-12-11T02:19:56.152Z,16.48
2022-12-11T02:22:34.201Z,14.18
2022-12-11T02:25:03.935Z,16.52
2022-12-11T02:27:56.779Z,14.82
2022-12-11T02:30:23.917Z,14.43
2022-12-11T02:33:00.078Z,13.65
2022-12-11T02:35:34.042Z,14.60
2022-12-11T02:38:05.937Z,12.60
2022-12-11T02:40:33.441Z,13.80
2022-12-11T02:43:01.571Z,14.95
2022-12-11T02:45:28.513Z,14.38
2022-12-11T02:47:56.382Z,12.43
2022-12-11T02:50:23.917Z,13.27
2022-12-11T02:52:51.788Z,15.35
2022-12-11T02:55:18.814Z,13.05
2022-12-11T02:57:53.412Z,15.18
2022-12-11T03:00:20.676Z,14.32
2022-12-11T03:02:47.686Z,13.60
2022-12-11T03:05:14.815Z,12.07
2022-12-11T03:07:43.158Z,10.65
2022-12-11T03:10:12.292Z,11.18
2022-12-11T03:12:40.532Z,11.93
2022-12-11T03:15:10.791Z,14.40
2022-12-11T03:18:19.236Z,12.93
2022-12-11T03:20:48.365Z,14.60
2022-12-11T03:23:23.954Z,11.23
2022-12-11T03:25:58.693Z,12.13
2022-12-11T03:28:41.742Z,12.02
2022-12-11T03:31:11.615Z,13.10
2022-12-11T03:33:40.713Z,11.15
2022-12-11T03:36:10.087Z,14.18
2022-12-11T03:38:40.004Z,11.48
2022-12-11T03:41:07.202Z,11.77
2022-12-11T03:43:34.070Z,12.65
2022-12-11T03:46:01.309Z,12.35
2022-12-11T03:48:32.079Z,14.80
2022-12-11T03:50:59.066Z,11.38
2022-12-11T03:53:26.467Z,10.35
2022-12-11T03:55:53.543Z,11.60
2022-12-11T03:58:20.420Z,13.55
2022-12-11T04:00:47.322Z,12.32
2022-12-11T04:03:14.837Z,15.48
2022-12-11T04:05:43.039Z,15.25
2022-12-11T04:08:10.498Z,15.88
2022-12-11T04:10:37.491Z,11.70
2022-12-11T04:13:04.446Z,15.68
2022-12-11T04:15:31.434Z,13.15
2022-12-11T04:18:16.791Z,14.63
2022-12-11T04:21:02.285Z,12.93
2022-12-11T04:23:47.662Z,12.27
2022-12-11T04:26:18.477Z,15.30
2022-12-11T04:28:46.205Z,14.88
2022-12-11T04:31:14.215Z,11.73
2022-12-11T04:33:41.347Z,19.77
2022-12-11T04:36:08.825Z,11.85
2022-12-11T04:38:35.908Z,13.38
2022-12-11T04:41:08.092Z,12.82
2022-12-11T04:43:35.129Z,12.80
2022-12-11T04:46:18.232Z,12.52
2022-12-11T04:48:45.458Z,9.80
2022-12-11T04:51:12.470Z,9.95
2022-12-11T04:53:39.556Z,12.48
2022-12-11T04:56:07.596Z,9.82
2022-12-11T04:58:36.108Z,11.65
2022-12-11T05:01:10.104Z,7.72
2022-12-11T05:03:37.164Z,8.48
2022-12-11T05:06:04.290Z,9.20
2022-12-11T05:08:31.318Z,10.93
2022-12-11T05:10:59.196Z,9.15
2022-12-11T05:13:26.903Z,10.15
2022-12-11T05:15:53.921Z,9.30
2022-12-11T05:18:20.918Z,10.35
2022-12-11T05:21:01.394Z,7.78
2022-12-11T05:23:28.528Z,6.65
2022-12-11T05:26:00.108Z,8.45
2022-12-11T05:28:28.244Z,7.40
2022-12-11T05:30:58.726Z,7.05
2022-12-11T05:33:25.850Z,6.57
2022-12-11T05:35:52.768Z,5.90
2022-12-11T05:38:19.823Z,4.82
2022-12-11T05:41:02.141Z,5.85
2022-12-11T05:43:30.036Z,7.72
2022-12-11T05:45:57.343Z,6.43
2022-12-11T05:48:24.473Z,6.20
2022-12-11T05:50:58.664Z,5.00
2022-12-11T05:53:25.791Z,5.15
2022-12-11T05:55:52.704Z,4.78
2022-12-11T05:58:20.104Z,3.67
2022-12-11T06:00:47.733Z,4.82
2022-12-11T06:03:14.658Z,3.20
2022-12-11T06:05:41.986Z,4.07
2022-12-11T06:08:09.028Z,4.28
2022-12-11T06:10:36.035Z,4.60
2022-12-11T06:13:03.031Z,3.58
2022-12-11T06:15:30.012Z,3.55
2022-12-11T06:17:56.989Z,4.18
2022-12-11T06:20:23.938Z,2.92
2022-12-11T06:22:50.965Z,4.10
2022-12-11T06:25:18.018Z,7.57
2022-12-11T06:27:44.986Z,3.70
2022-12-11T06:30:12.337Z,3.17
2022-12-11T06:32:39.324Z,3.00
2022-12-11T06:35:06.631Z,3.70
2022-12-11T06:37:35.314Z,4.78
2022-12-11T06:40:02.609Z,2.63
2022-12-11T06:42:30.498Z,5.53
2022-12-11T06:44:59.837Z,6.70
2022-12-11T06:47:27.534Z,6.35
2022-12-11T06:49:55.091Z,6.95
2022-12-11T06:52:22.795Z,5.07
2022-12-11T06:54:49.826Z,4.13
2022-12-11T06:57:17.570Z,5.10
2022-12-11T06:59:44.605Z,6.00
2022-12-11T07:02:15.220Z,3.83
2022-12-11T07:04:42.340Z,5.63
2022-12-11T07:07:09.588Z,3.85
2022-12-11T07:09:37.606Z,6.53
2022-12-11T07:12:04.952Z,4.20
2022-12-11T07:14:31.944Z,4.53
2022-12-11T07:16:59.002Z,3.75
2022-12-11T07:19:26.079Z,3.53
2022-12-11T07:21:53.238Z,3.90
2022-12-11T07:24:20.150Z,3.95
2022-12-11T07:26:47.329Z,3.58
2022-12-11T07:29:14.261Z,5.10
2022-12-11T07:31:41.236Z,4.57
2022-12-11T07:34:08.249Z,2.80
2022-12-11T07:36:35.377Z,4.38
2022-12-11T07:39:02.320Z,2.80
2022-12-11T07:41:29.428Z,3.03
2022-12-11T07:43:56.405Z,2.50
2022-12-11T07:46:24.577Z,4.03
2022-12-11T07:48:51.629Z,3.90
2022-12-11T07:51:19.499Z,3.60
2022-12-11T07:53:48.030Z,4.85
2022-12-11T07:56:15.891Z,3.05
2022-12-11T07:58:42.977Z,4.57
2022-12-11T08:01:13.926Z,4.63
2022-12-11T08:03:40.937Z,4.18
2022-12-11T08:06:08.173Z,4.70
2022-12-11T08:08:35.230Z,4.30
2022-12-11T08:11:12.229Z,5.93
2022-12-11T08:13:39.271Z,5.88
2022-12-11T08:16:07.407Z,7.80
2022-12-11T08:18:34.956Z,6.35
2022-12-11T08:21:12.766Z,8.02
2022-12-11T08:23:39.769Z,4.85
2022-12-11T08:26:08.090Z,4.85
2022-12-11T08:28:35.038Z,4.93
2022-12-11T08:31:04.767Z,4.35
2022-12-11T08:33:32.011Z,4.55
2022-12-11T08:35:58.962Z,4.78
2022-12-11T08:38:26.017Z,5.13
2022-12-11T08:40:53.056Z,4.25
2022-12-11T08:43:19.988Z,4.28
2022-12-11T08:45:47.038Z,5.50
2022-12-11T08:48:14.804Z,5.72
2022-12-11T08:50:42.009Z,7.07
2022-12-11T08:53:08.995Z,6.15
2022-12-11T08:55:35.886Z,8.70
2022-12-11T08:58:03.394Z,6.82
2022-12-11T09:00:30.376Z,8.77
2022-12-11T09:02:57.388Z,8.38
2022-12-11T09:05:24.408Z,6.25
2022-12-11T09:07:51.377Z,9.18
2022-12-11T09:10:18.580Z,7.03
2022-12-11T09:12:45.564Z,7.45
2022-12-11T09:15:12.916Z,7.50
2022-12-11T09:17:40.206Z,5.50
2022-12-11T09:20:07.708Z,6.70
2022-12-11T09:22:34.729Z,7.07
2022-12-11T09:25:01.746Z,8.65
2022-12-11T09:27:29.449Z,6.97
2022-12-11T09:29:56.445Z,6.47
2022-12-11T09:32:23.401Z,7.18
2022-12-11T09:34:51.529Z,7.47
2022-12-11T09:37:18.498Z,6.22
2022-12-11T09:39:45.440Z,6.80
2022-12-11T09:42:39.483Z,6.07
2022-12-11T09:45:10.961Z,7.90
2022-12-11T09:47:43.380Z,8.60
2022-12-11T09:50:10.386Z,7.00
2022-12-11T09:52:46.389Z,6.60
2022-12-11T09:55:16.019Z,9.30
2022-12-11T09:57:43.063Z,10.15
2022-12-11T10:00:14.756Z,7.03
2022-12-11T10:03:07.347Z,10.27
2022-12-11T10:06:08.178Z,7.57
2022-12-11T10:08:56.686Z,6.63
2022-12-11T10:11:45.501Z,7.00
2022-12-11T10:14:27.585Z,6.63
2022-12-11T10:17:00.119Z,8.57
2022-12-11T10:19:29.007Z,8.60
2022-12-11T10:21:55.952Z,7.20
2022-12-11T10:24:59.386Z,8.90
2022-12-11T10:27:21.515Z,8.93
2022-12-11T10:29:49.659Z,9.10
2022-12-11T10:32:25.256Z,9.88
2022-12-11T10:35:02.372Z,13.32
2022-12-11T10:37:29.375Z,11.82
2022-12-11T10:39:56.310Z,8.65
2022-12-11T10:42:23.421Z,10.32
2022-12-11T10:44:57.656Z,10.30
2022-12-11T10:47:24.726Z,10.98
2022-12-11T10:49:59.743Z,8.45
2022-12-11T10:52:33.787Z,9.05
2022-12-11T10:55:20.982Z,7.60
2022-12-11T10:58:02.462Z,7.68
2022-12-11T11:00:30.909Z,8.02
2022-12-11T11:02:58.103Z,10.55
2022-12-11T11:05:35.955Z,11.40
2022-12-11T11:08:19.829Z,12.30
2022-12-11T11:10:54.868Z,8.63
2022-12-11T11:13:23.552Z,8.55
2022-12-11T11:15:58.586Z,12.68
2022-12-11T11:18:27.180Z,9.73
2022-12-11T11:20:54.126Z,8.05
2022-12-11T11:23:21.878Z,9.00
2022-12-11T11:25:59.657Z,7.47
2022-12-11T11:28:38.058Z,10.35
2022-12-11T11:31:09.560Z,11.32
2022-12-11T11:33:37.201Z,9.02
2022-12-11T11:36:06.043Z,11.00
2022-12-11T11:38:36.009Z,8.50
2022-12-11T11:41:11.501Z,9.15
2022-12-11T11:43:46.580Z,8.15
2022-12-11T11:46:29.231Z,9.35
2022-12-11T11:49:19.525Z,10.40
2022-12-11T11:51:54.616Z,9.50
2022-12-11T11:54:28.395Z,12.02
2022-12-11T11:57:03.638Z,10.25
2022-12-11T11:59:43.233Z,13.60
2022-12-11T12:02:19.375Z,10.85
2022-12-11T12:04:46.798Z,11.05
2022-12-11T12:07:36.735Z,11.95
2022-12-11T12:10:26.718Z,13.18
2022-12-11T12:13:47.697Z,10.27
2022-12-11T12:16:22.939Z,9.95
2022-12-11T12:19:02.073Z,10.90
2022-12-11T12:21:36.496Z,9.60
2022-12-11T12:24:03.401Z,11.48
2022-12-11T12:26:32.653Z,11.75
2022-12-11T12:29:18.163Z,10.27
2022-12-11T12:31:54.127Z,12.82
2022-12-11T12:34:39.039Z,10.68
2022-12-11T12:37:27.490Z,12.93
2022-12-11T12:40:13.470Z,11.07
2022-12-11T12:42:46.687Z,10.43
2022-12-11T12:45:28.267Z,8.63
2022-12-11T12:47:55.268Z,11.60
2022-12-11T12:50:24.168Z,10.50
2022-12-11T12:52:51.601Z,10.93
2022-12-11T12:55:23.718Z,9.77
2022-12-11T12:57:54.946Z,10.57
2022-12-11T13:00:34.690Z,10.85
2022-12-11T13:03:03.763Z,9.63
2022-12-11T13:05:33.366Z,11.70
2022-12-11T13:08:02.421Z,11.88
2022-12-11T13:10:36.422Z,9.90
2022-12-11T13:13:04.300Z,11.38
2022-12-11T13:15:43.830Z,12.73
2022-12-11T13:18:37.013Z,10.73
2022-12-11T13:21:24.817Z,9.77
2022-12-11T13:23:51.833Z,12.20
2022-12-11T13:26:32.332Z,12.35
2022-12-11T13:28:59.465Z,11.07
2022-12-11T13:31:34.791Z,9.05
2022-12-11T13:34:19.083Z,11.13
2022-12-11T13:36:50.221Z,11.90
2022-12-11T13:39:24.104Z,12.07
2022-12-11T13:41:54.004Z,14.25
2022-12-11T13:44:27.198Z,10.02
2022-12-11T13:46:55.730Z,15.68
2022-12-11T13:49:24.994Z,12.13
2022-12-11T13:51:54.256Z,9.65
2022-12-11T13:54:21.173Z,10.15
2022-12-11T13:57:02.914Z,10.05
2022-12-11T13:59:34.945Z,9.70
2022-12-11T14:02:06.339Z,12.48
2022-12-11T14:04:33.980Z,10.77
2022-12-11T14:07:00.864Z,11.40
2022-12-11T14:09:27.883Z,12.25
2022-12-11T14:11:57.476Z,13.00
2022-12-11T14:14:44.671Z,10.68
2022-12-11T14:17:14.181Z,12.27
2022-12-11T14:19:45.842Z,14.85
2022-12-11T14:22:27.174Z,12.82
2022-12-11T14:24:57.730Z,12.35
2022-12-11T14:27:25.002Z,12.95
2022-12-11T14:29:52.055Z,15.55
2022-12-11T14:32:31.194Z,11.63
2022-12-11T14:34:58.129Z,10.60
2022-12-11T14:37:25.272Z,11.27
2022-12-11T14:40:07.274Z,9.10
2022-12-11T14:42:42.797Z,10.43
2022-12-11T14:45:21.289Z,10.90
2022-12-11T14:47:48.726Z,10.35
2022-12-11T14:50:18.535Z,9.80
2022-12-11T14:52:51.689Z,11.82
2022-12-11T14:55:22.097Z,10.10
2022-12-11T14:57:50.260Z,10.80
2022-12-11T15:00:30.593Z,13.40
2022-12-11T15:03:05.431Z,11.65
2022-12-11T15:05:38.800Z,14.27
2022-12-11T15:08:10.845Z,14.95
2022-12-11T15:11:02.248Z,16.60
2022-12-11T15:13:29.223Z,18.33
2022-12-11T15:15:56.943Z,17.17
2022-12-11T15:18:31.680Z,21.23
2022-12-11T15:21:00.840Z,16.98
2022-12-11T15:23:28.644Z,16.52
2022-12-11T15:25:59.781Z,17.48
2022-12-11T15:28:30.641Z,18.75
2022-12-11T15:31:00.061Z,20.80
2022-12-11T15:33:32.542Z,17.77
2022-12-11T15:36:06.022Z,17.80
2022-12-11T15:38:39.620Z,20.83
2022-12-11T15:41:07.157Z,16.90
2022-12-11T15:43:36.177Z,16.42
2022-12-11T15:46:03.976Z,16.33
2022-12-11T15:48:31.001Z,19.92
2022-12-11T15:50:57.978Z,19.42
2022-12-11T15:53:24.970Z,20.33
2022-12-11T15:55:51.953Z,18.90
2022-12-11T15:58:23.308Z,22.58
2022-12-11T16:00:50.650Z,17.42
2022-12-11T16:03:19.145Z,17.65
2022-12-11T16:05:46.138Z,17.63
2022-12-11T16:08:15.243Z,13.48
2022-12-11T16:10:45.536Z,16.08
2022-12-11T16:13:13.009Z,14.75
2022-12-11T16:15:41.939Z,15.88
2022-12-11T16:18:11.006Z,13.68
2022-12-11T16:20:38.237Z,11.93
2022-12-11T16:23:05.275Z,11.63
2022-12-11T16:25:32.970Z,11.07
2022-12-11T16:28:00.601Z,12.43
2022-12-11T16:30:28.300Z,12.02
2022-12-11T16:32:55.263Z,12.32
2022-12-11T16:35:22.431Z,13.73
2022-12-11T16:37:50.784Z,14.02
2022-12-11T16:40:17.826Z,13.55
2022-12-11T16:42:44.762Z,14.85
2022-12-11T16:45:14.381Z,13.18
2022-12-11T16:47:41.565Z,16.52
2022-12-11T16:50:09.179Z,14.00
2022-12-11T16:52:36.170Z,12.98
2022-12-11T16:55:03.211Z,10.30
2022-12-11T16:57:30.480Z,12.82
2022-12-11T16:59:57.373Z,15.93
2022-12-11T17:02:24.429Z,14.05
2022-12-11T17:04:54.033Z,11.07
2022-12-11T17:07:21.243Z,11.68
2022-12-11T17:09:48.187Z,17.27
2022-12-11T17:12:15.111Z,16.90
2022-12-11T17:14:42.083Z,15.05
2022-12-11T17:17:09.415Z,14.70
2022-12-11T17:19:37.000Z,13.48
2022-12-11T17:22:04.714Z,17.27
2022-12-11T17:24:31.632Z,13.10
2022-12-11T17:26:59.805Z,13.25
2022-12-11T17:29:26.737Z,16.42
2022-12-11T17:31:53.684Z,14.60
2022-12-11T17:34:20.556Z,17.98
2022-12-11T17:36:47.684Z,21.58
2022-12-11T17:39:14.617Z,25.10
2022-12-11T17:41:41.578Z,29.40
2022-12-11T17:44:08.478Z,32.33
2022-12-11T17:46:35.496Z,29.33
2022-12-11T17:49:03.990Z,28.27
2022-12-11T17:51:30.904Z,34.47
2022-12-11T17:53:57.901Z,31.73
2022-12-11T17:56:25.049Z,29.10
2022-12-11T17:58:52.079Z,28.38
2022-12-11T18:01:19.373Z,28.40
2022-12-11T18:03:47.143Z,24.92
2022-12-11T18:06:14.771Z,26.40
2022-12-11T18:08:41.946Z,26.08
2022-12-11T18:11:16.725Z,27.95
2022-12-11T18:13:44.147Z,32.17
2022-12-11T18:16:17.477Z,38.58
2022-12-11T18:18:45.958Z,36.88
2022-12-11T18:21:14.177Z,33.45
2022-12-11T18:23:41.088Z,29.48
2022-12-11T18:26:08.070Z,30.92
2022-12-11T18:28:35.047Z,33.15
2022-12-11T18:31:02.580Z,26.80
2022-12-11T18:33:30.105Z,28.65
2022-12-11T18:35:57.221Z,23.90
2022-12-11T18:38:24.387Z,28.20
2022-12-11T18:40:51.775Z,22.10
2022-12-11T18:43:18.676Z,19.00
2022-12-11T18:45:45.745Z,17.95
2022-12-11T18:48:13.378Z,18.73
2022-12-11T18:50:52.338Z,18.10
2022-12-11T18:53:19.732Z,21.60
2022-12-11T18:55:47.617Z,25.67
2022-12-11T18:58:16.297Z,21.45
2022-12-11T19:00:43.343Z,22.05
2022-12-11T19:03:10.663Z,28.05
2022-12-11T19:05:40.460Z,32.67
2022-12-11T19:08:07.535Z,35.92
2022-12-11T19:10:34.504Z,33.97
2022-12-11T19:13:01.392Z,44.47
2022-12-11T19:15:28.418Z,42.20
2022-12-11T19:17:55.354Z,27.80
2022-12-11T19:20:48.061Z,29.98
2022-12-11T19:23:09.261Z,24.65
2022-12-11T19:25:42.353Z,23.38
2022-12-11T19:28:09.390Z,24.20
2022-12-11T19:30:36.981Z,18.33
2022-12-11T19:33:03.910Z,18.80
2022-12-11T19:35:30.858Z,18.00
2022-12-11T19:37:57.779Z,15.52
2022-12-11T19:40:26.421Z,16.27
2022-12-11T19:42:53.497Z,15.82
2022-12-11T19:45:20.413Z,16.70
2022-12-11T19:47:47.295Z,13.00
2022-12-11T19:50:14.276Z,16.08
2022-12-11T19:52:45.958Z,13.23
2022-12-11T19:55:15.221Z,13.32
2022-12-11T19:57:42.191Z,13.45
2022-12-11T20:00:09.586Z,15.07
2022-12-11T20:02:39.148Z,14.93
2022-12-11T20:05:06.401Z,15.25
2022-12-11T20:07:33.348Z,14.63
2022-12-11T20:10:00.595Z,14.27
2022-12-11T20:12:28.642Z,15.60
2022-12-11T20:14:55.613Z,18.13
2022-12-11T20:17:22.532Z,19.85
2022-12-11T20:19:49.893Z,14.68
2022-12-11T20:22:16.892Z,12.70
2022-12-11T20:24:43.833Z,15.05
2022-12-11T20:27:12.553Z,12.85
2022-12-11T20:29:39.562Z,14.40
2022-12-11T20:32:07.529Z,12.25
2022-12-11T20:34:34.549Z,15.93
2022-12-11T20:37:01.605Z,15.30
2022-12-11T20:39:29.221Z,10.75
2022-12-11T20:41:56.188Z,12.35
2022-12-11T20:44:23.180Z,13.68
2022-12-11T20:46:51.025Z,19.58
2022-12-11T20:49:18.071Z,16.63
2022-12-11T20:51:44.975Z,15.98
2022-12-11T20:54:12.285Z,15.38
2022-12-11T20:56:39.327Z,15.95
2022-12-11T20:59:06.953Z,15.90
2022-12-11T21:01:35.039Z,14.05
2022-12-11T21:04:02.033Z,16.58
2022-12-11T21:06:38.841Z,15.50
2022-12-11T21:09:08.061Z,16.23
2022-12-11T21:11:35.030Z,13.75
2022-12-11T21:14:01.898Z,14.35
2022-12-11T21:16:29.086Z,17.58
2022-12-11T21:18:56.755Z,13.95
2022-12-11T21:21:23.777Z,14.38
2022-12-11T21:23:50.843Z,14.90
2022-12-11T21:26:17.858Z,15.27
2022-12-11T21:28:44.796Z,16.27
2022-12-11T21:31:13.607Z,13.90
2022-12-11T21:33:40.613Z,12.55
2022-12-11T21:36:11.097Z,13.13
2022-12-11T21:38:38.207Z,15.77
2022-12-11T21:41:13.828Z,14.20
2022-12-11T21:44:00.422Z,15.93
2022-12-11T21:46:29.009Z,13.98
2022-12-11T21:48:56.146Z,15.80
2022-12-11T21:51:34.135Z,20.08
2022-12-11T21:54:03.505Z,17.92
2022-12-11T21:56:31.817Z,17.52
2022-12-11T21:58:58.832Z,15.98
2022-12-11T22:01:31.489Z,19.77
2022-12-11T22:03:58.831Z,16.80
2022-12-11T22:06:25.706Z,26.75
2022-12-11T22:08:52.735Z,30.23
2022-12-11T22:11:20.827Z,27.48
2022-12-11T22:13:47.851Z,23.58
2022-12-11T22:16:15.003Z,21.45
2022-12-11T22:18:42.014Z,26.35
2022-12-11T22:21:09.002Z,18.85
2022-12-11T22:23:37.814Z,22.10
2022-12-11T22:26:05.204Z,21.73
2022-12-11T22:28:32.139Z,20.60
2022-12-11T22:30:59.128Z,19.33
2022-12-11T22:33:26.921Z,17.55
2022-12-11T22:35:59.816Z,18.25
2022-12-11T22:38:26.910Z,14.23
2022-12-11T22:40:54.341Z,14.73
2022-12-11T22:43:21.805Z,13.38
2022-12-11T22:45:49.440Z,16.65
2022-12-11T22:48:16.456Z,15.27
2022-12-11T22:50:44.322Z,16.20
2022-12-11T22:53:11.830Z,14.18
2022-12-11T22:55:39.889Z,14.32
2022-12-11T22:58:07.120Z,17.95
2022-12-11T23:00:34.125Z,15.82
2022-12-11T23:03:02.107Z,13.52
2022-12-11T23:05:29.491Z,15.38
2022-12-11T23:07:56.558Z,15.55
2022-12-11T23:10:23.588Z,12.35
2022-12-11T23:12:50.510Z,16.67
2022-12-11T23:15:18.329Z,14.95
2022-12-11T23:17:45.207Z,15.30
2022-12-11T23:20:12.209Z,14.23
2022-12-11T23:22:39.107Z,11.45
2022-12-11T23:25:06.429Z,13.05
2022-12-11T23:27:33.318Z,10.32
2022-12-11T23:30:00.287Z,13.63
2022-12-11T23:32:27.673Z,12.63
2022-12-11T23:34:54.599Z,9.15
2022-12-11T23:37:21.539Z,9.98
2022-12-11T23:39:48.453Z,12.43
2022-12-11T23:42:15.393Z,13.95
2022-12-11T23:44:42.294Z,12.90
2022-12-11T23:47:09.219Z,11.57
2022-12-11T23:49:36.136Z,14.75
2022-12-11T23:52:03.281Z,14.57
2022-12-11T23:54:30.890Z,9.57
2022-12-11T23:56:57.853Z,12.60
2022-12-11T23:59:24.805Z,10.77
